VK4AB-13 Weather Reports


time (UTC)temp
C
wind
direction
speed
KPH
gust
KPH
rain 1hr
cm
rain 24hr
cm
rain mn
cm
humidity
%
barometer
mb
20260505140346 21 235 6.4 14.5 0.13 0.15 0.13 88 1017.3
20260505124846 21 126 0.0 0.0 0.00 0.03 0.03 85 1017.1
20260505124346 21 126 0.0 0.0 0.00 0.03 0.03 85 1016.9
20260505123945 21 126 0.0 0.0 0.00 0.03 0.03 85 1017.0
20260505123846 21 126 0.0 0.0 0.00 0.03 0.03 85 1017.0
20260505123346 21 126 0.0 1.6 0.00 0.03 0.03 85 1017.1
20260505122846 21 126 0.0 0.0 0.00 0.03 0.03 85 1016.9
20260505122346 21 126 0.0 0.0 0.00 0.03 0.03 85 1017.0
20260505121958 21 126 0.0 1.6 0.00 0.03 0.03 85 1017.1
20260505121846 21 126 0.0 3.2 0.00 0.03 0.03 85 1017.0
20260505121346 21 126 0.0 1.6 0.00 0.03 0.03 85 1017.1
20260505120846 21 126 0.0 0.0 0.00 0.03 0.03 84 1017.2
20260505120346 21 126 0.0 0.0 0.00 0.03 0.03 84 1017.1
20260505115846 21 126 0.0 0.0 0.00 0.03 0.03 84 1016.9
20260505115347 21 126 0.0 0.0 0.00 0.03 0.03 84 1016.9
20260505114846 21 126 0.0 0.0 0.00 0.03 0.03 84 1016.9
20260505114346 22 126 0.0 0.0 0.00 0.03 0.03 84 1017.0
20260505113950 22 126 0.0 0.0 0.00 0.03 0.03 83 1016.9
20260505113846 22 126 0.0 0.0 0.00 0.03 0.03 83 1016.9
20260505113346 22 126 0.0 0.0 0.00 0.03 0.03 83 1017.0
20260505112846 22 126 0.0 0.0 0.00 0.03 0.03 83 1017.2
20260505112346 22 126 0.0 0.0 0.00 0.03 0.03 83 1017.1
20260505111846 22 126 0.0 3.2 0.00 0.03 0.03 83 1017.1
20260505111346 22 126 0.0 0.0 0.00 0.03 0.03 83 1017.0
20260505111039 22 126 0.0 3.2 0.00 0.03 0.03 83 1017.1
20260505110846 22 126 0.0 3.2 0.00 0.03 0.03 83 1017.1
20260505110537 22 126 0.0 4.8 0.00 0.03 0.03 83 1017.1
20260505110347 22 126 0.0 1.6 0.00 0.03 0.03 83 1017.2
20260505101847 22 126 1.6 4.8 0.00 0.03 0.03 81 1016.5
20260505101347 22 126 1.6 4.8 0.00 0.03 0.03 81 1016.4
20260505100847 22 126 1.6 4.8 0.00 0.03 0.03 81 1016.4
20260505100534 22 126 3.2 6.4 0.00 0.03 0.03 81 1016.4
20260505100347 22 126 1.6 4.8 0.00 0.03 0.03 81 1016.4
20260505095847 22 126 3.2 6.4 0.00 0.03 0.03 81 1016.4
20260505095347 22 126 3.2 8.0 0.00 0.03 0.03 81 1016.3
20260505094847 22 126 3.2 8.0 0.00 0.03 0.03 81 1016.2
20260505094347 22 126 3.2 11.3 0.00 0.03 0.03 81 1016.3
20260505093847 22 126 3.2 8.0 0.00 0.03 0.03 80 1016.2
20260505093347 22 127 3.2 6.4 0.00 0.03 0.03 80 1016.2
20260505093038 22 127 3.2 6.4 0.00 0.03 0.03 80 1016.3
20260505092847 22 127 3.2 6.4 0.00 0.03 0.03 80 1016.3
20260505092347 22 127 1.6 6.4 0.00 0.03 0.03 80 1016.4
20260505092142 22 127 3.2 6.4 0.00 0.03 0.03 79 1016.3
20260505091847 22 127 3.2 6.4 0.00 0.03 0.03 79 1016.3
20260505091540 22 128 1.6 6.4 0.00 0.03 0.03 79 1016.2
20260505091347 22 127 3.2 8.0 0.00 0.03 0.03 79 1016.3
20260505090847 22 128 1.6 6.4 0.00 0.03 0.03 79 1016.2
20260505090438 22 128 1.6 6.4 0.00 0.03 0.03 78 1016.1
20260505090347 22 128 1.6 4.8 0.00 0.03 0.03 78 1016.1
20260505085847 22 128 1.6 6.4 0.00 0.03 0.03 78 1016.1
20260505085347 22 128 1.6 3.2 0.00 0.03 0.03 77 1016.0
20260505084847 23 128 1.6 6.4 0.00 0.03 0.03 77 1015.9
20260505084347 23 128 1.6 4.8 0.00 0.03 0.03 76 1015.8
20260505083847 23 128 3.2 6.4 0.00 0.03 0.03 76 1015.8
20260505083347 23 128 3.2 8.0 0.00 0.03 0.03 76 1015.8
20260505082940 23 130 3.2 11.3 0.00 0.03 0.03 76 1015.5
20260505082847 23 130 3.2 11.3 0.00 0.03 0.03 76 1015.5
20260505082653 23 130 1.6 8.0 0.00 0.03 0.03 75 1015.4
20260505082347 23 130 1.6 8.0 0.00 0.03 0.03 75 1015.4
20260505081847 23 62 1.6 6.4 0.00 0.03 0.03 75 1015.5
20260505081347 23 62 1.6 4.8 0.00 0.03 0.03 74 1015.3
20260505081041 23 62 1.6 6.4 0.00 0.03 0.03 74 1015.2
20260505080847 23 62 1.6 6.4 0.00 0.03 0.03 74 1015.2
20260505080347 23 61 1.6 4.8 0.00 0.03 0.03 74 1015.0
20260505080254 23 61 1.6 4.8 0.00 0.03 0.03 73 1014.9
20260505075847 23 61 1.6 4.8 0.00 0.03 0.03 73 1014.9
20260505075347 23 61 1.6 6.4 0.00 0.03 0.03 73 1015.0
20260505074847 24 60 1.6 4.8 0.00 0.03 0.03 72 1015.1
20260505074347 24 60 1.6 8.0 0.00 0.03 0.03 72 1014.9
20260505073847 24 60 1.6 8.0 0.00 0.03 0.03 72 1014.9
20260505073347 24 59 3.2 6.4 0.00 0.03 0.03 71 1014.9
20260505072847 25 59 1.6 4.8 0.00 0.03 0.03 71 1014.8
20260505072735 25 59 3.2 4.8 0.00 0.03 0.03 70 1014.6
20260505072347 25 59 1.6 8.0 0.00 0.03 0.03 70 1014.7
20260505071847 25 59 3.2 4.8 0.00 0.03 0.03 70 1014.6
20260505071347 25 59 3.2 11.3 0.00 0.03 0.03 69 1014.4
20260505070847 25 65 3.2 12.9 0.00 0.03 0.03 68 1014.5
20260505070347 25 103 3.2 11.3 0.00 0.03 0.03 67 1014.6
20260505065847 26 108 1.6 9.7 0.00 0.03 0.03 64 1014.5
20260505065636 26 67 3.2 6.4 0.00 0.03 0.03 63 1014.4
20260505065347 26 61 0.0 0.0 0.00 0.03 0.03 63 1014.5
20260505064847 26 66 1.6 4.8 0.00 0.03 0.03 63 1014.3
20260505064347 26 67 3.2 6.4 0.00 0.03 0.03 63 1014.4
20260505063847 26 67 1.6 6.4 0.00 0.03 0.03 63 1014.4
20260505063448 26 67 3.2 6.4 0.00 0.03 0.03 62 1014.3
20260505063347 26 67 3.2 6.4 0.00 0.03 0.03 62 1014.3
20260505062847 26 67 3.2 8.0 0.00 0.03 0.03 62 1014.2
20260505062347 27 67 1.6 4.8 0.00 0.03 0.03 62 1014.4
20260505062045 27 67 3.2 4.8 0.00 0.03 0.03 61 1014.4
20260505061847 27 67 3.2 4.8 0.00 0.03 0.03 61 1014.4
20260505061347 27 67 4.8 11.3 0.00 0.03 0.03 61 1014.2
20260505060847 27 101 3.2 9.7 0.00 0.03 0.03 60 1014.2
20260505060347 27 104 3.2 6.4 0.00 0.03 0.03 59 1014.0
20260505055942 27 104 3.2 6.4 0.00 0.03 0.03 57 1014.1
20260505055847 27 104 3.2 6.4 0.00 0.03 0.03 57 1014.1
20260505055347 27 104 3.2 9.7 0.00 0.03 0.03 56 1014.1
20260505054847 27 103 1.6 6.4 0.00 0.03 0.03 56 1014.2
20260505054347 27 105 3.2 4.8 0.00 0.03 0.03 56 1014.1
20260505053936 27 105 1.6 9.7 0.00 0.03 0.03 56 1014.1
20260505053847 27 105 1.6 9.7 0.00 0.03 0.03 56 1014.1
20260505053347 27 107 1.6 4.8 0.00 0.03 0.03 56 1014.2
20260505052847 28 107 1.6 4.8 0.00 0.03 0.03 55 1014.1
20260505052347 28 107 1.6 6.4 0.00 0.03 0.03 55 1013.9
20260505051847 28 107 1.6 6.4 0.00 0.03 0.03 54 1013.9
20260505051347 28 107 1.6 3.2 0.00 0.03 0.03 55 1013.9
20260505050847 28 107 1.6 6.4 0.00 0.03 0.03 54 1014.1
20260505050347 28 109 1.6 6.4 0.00 0.03 0.03 54 1014.1
20260505041347 28 111 3.2 6.4 0.00 0.03 0.03 57 1014.0
20260505041036 28 111 3.2 9.7 0.00 0.03 0.03 57 1013.9
20260505040847 28 111 3.2 9.7 0.00 0.03 0.03 57 1013.9
20260505040347 28 116 4.8 6.4 0.00 0.03 0.03 57 1013.9
20260505040035 28 74 3.2 8.0 0.00 0.03 0.03 57 1013.9
20260505035847 28 118 3.2 11.3 0.00 0.03 0.03 57 1013.8
20260505035347 28 117 3.2 9.7 0.00 0.03 0.03 57 1013.8
20260505034847 28 74 3.2 8.0 0.00 0.03 0.03 57 1013.9
20260505034546 28 124 4.8 14.5 0.00 0.03 0.03 57 1013.9
20260505034347 28 124 4.8 14.5 0.00 0.03 0.03 57 1013.9
20260505033847 28 118 4.8 9.7 0.00 0.03 0.03 57 1013.8
20260505033835 28 117 4.8 12.9 0.00 0.03 0.03 56 1013.9
20260505033347 28 117 4.8 12.9 0.00 0.03 0.03 56 1013.9
20260505032847 28 33 4.8 8.0 0.00 0.03 0.03 56 1013.9
20260505032635 29 72 3.2 8.0 0.00 0.03 0.03 55 1013.9
20260505032347 29 72 3.2 8.0 0.00 0.03 0.03 55 1013.9
20260505032135 29 279 1.6 6.4 0.00 0.03 0.03 55 1013.7
20260505031847 29 279 1.6 6.4 0.00 0.03 0.03 55 1013.7
20260505031347 28 279 1.6 9.7 0.00 0.03 0.03 55 1013.9
20260505031040 29 281 0.0 4.8 0.00 0.03 0.03 54 1014.2
20260505030847 29 279 1.6 6.4 0.00 0.03 0.03 54 1014.0
20260505030347 29 281 0.0 4.8 0.00 0.03 0.03 54 1014.2
20260505025847 29 281 1.6 4.8 0.00 0.03 0.03 54 1014.4
20260505025347 29 281 3.2 6.4 0.00 0.03 0.03 54 1014.2
20260505024847 29 280 4.8 11.3 0.00 0.03 0.03 55 1014.2
20260505024347 28 196 3.2 9.7 0.00 0.03 0.03 57 1014.3
20260505023847 28 180 4.8 11.3 0.00 0.03 0.03 56 1014.4
20260505023347 28 271 3.2 11.3 0.00 0.03 0.03 57 1014.6
20260505022847 28 168 3.2 8.0 0.00 0.03 0.03 57 1014.9
20260505022347 28 157 4.8 8.0 0.00 0.03 0.03 57 1014.8
20260505021847 28 152 3.2 12.9 0.00 0.03 0.03 57 1014.8
20260505021347 28 232 1.6 6.4 0.00 0.03 0.03 57 1015.0
20260505020847 28 232 1.6 4.8 0.00 0.03 0.03 56 1015.1
20260505020347 28 232 1.6 4.8 0.00 0.03 0.03 59 1015.2
20260505015847 27 231 1.6 4.8 0.00 0.03 0.03 59 1015.3
20260505015347 27 310 1.6 4.8 0.00 0.03 0.03 59 1015.4
20260505014847 28 310 3.2 4.8 0.00 0.03 0.03 59 1015.5
20260505014347 27 310 3.2 12.9 0.00 0.03 0.03 62 1015.6
20260505013847 27 223 1.6 4.8 0.00 0.03 0.03 64 1015.7
20260505013347 27 223 3.2 8.0 0.00 0.03 0.03 63 1015.8
20260505012847 26 223 1.6 6.4 0.00 0.03 0.03 65 1015.9
20260505012347 26 221 1.6 4.8 0.00 0.03 0.03 66 1016.0
20260505011847 26 221 1.6 6.4 0.00 0.03 0.03 66 1016.0
20260505011347 26 217 1.6 4.8 0.00 0.03 0.03 68 1016.1
20260505010847 25 223 0.0 4.8 0.00 0.03 0.03 70 1016.2
20260505010347 25 223 0.0 0.0 0.00 0.03 0.03 70 1016.4
20260505005847 25 223 1.6 3.2 0.00 0.03 0.03 70 1016.5
20260505005347 25 223 1.6 4.8 0.00 0.03 0.03 71 1016.6
20260505004847 25 223 1.6 3.2 0.00 0.03 0.03 70 1016.6
20260505004347 25 223 3.2 8.0 0.00 0.03 0.03 70 1016.8
20260505003847 25 222 1.6 4.8 0.00 0.03 0.03 70 1016.9
20260505003347 25 222 1.6 3.2 0.00 0.03 0.03 70 1016.9
20260505002847 25 222 1.6 6.4 0.00 0.03 0.03 70 1017.0
20260505002347 25 222 1.6 6.4 0.00 0.03 0.03 71 1017.0
20260505001847 25 222 1.6 3.2 0.00 0.03 0.03 72 1017.1
20260505001347 25 222 1.6 4.8 0.00 0.03 0.03 72 1017.1
20260505000847 25 222 3.2 6.4 0.00 0.03 0.03 73 1017.1
20260505000347 25 222 3.2 8.0 0.00 0.03 0.03 73 1017.1
20260504235847 25 220 3.2 6.4 0.00 0.03 0.03 74 1017.1
20260504235347 25 221 3.2 6.4 0.00 0.03 0.03 74 1017.2
20260504234847 25 222 3.2 6.4 0.00 0.03 0.03 74 1017.3
20260504234347 25 221 3.2 11.3 0.00 0.03 0.03 76 1017.4
20260504233847 24 96 3.2 6.4 0.00 0.03 0.03 76 1017.5
20260504233347 23 91 3.2 6.4 0.00 0.03 0.03 79 1017.5
20260504232847 23 90 1.6 6.4 0.00 0.03 0.03 81 1017.4
20260504232347 23 90 1.6 4.8 0.00 0.03 0.03 83 1017.5
20260504231847 22 90 1.6 6.4 0.00 0.03 0.03 84 1017.5
20260504231347 22 90 1.6 4.8 0.00 0.03 0.03 86 1017.5
20260504230847 22 90 3.2 4.8 0.00 0.03 0.03 88 1017.6
20260504230347 21 90 1.6 6.4 0.00 0.03 0.03 89 1017.6
20260504225847 21 90 1.6 0.0 0.00 0.03 0.03 91 1017.6
20260504225347 21 90 3.2 6.4 0.00 0.03 0.03 92 1017.6
20260504224847 21 90 3.2 4.8 0.00 0.03 0.03 93 1017.6
20260504224347 20 90 1.6 6.4 0.00 0.03 0.03 94 1017.6
20260504223847 20 90 1.6 4.8 0.00 0.03 0.03 94 1017.7
20260504223546 20 90 1.6 4.8 0.00 0.03 0.03 95 1017.7
20260504223347 20 90 1.6 4.8 0.00 0.03 0.03 95 1017.7
20260504222847 20 90 1.6 3.2 0.00 0.03 0.03 95 1017.6
20260504222348 20 86 1.6 3.2 0.00 0.03 0.03 95 1017.7
20260504221847 19 90 1.6 3.2 0.00 0.03 0.03 95 1017.7
20260504221348 19 90 1.6 3.2 0.00 0.03 0.03 95 1017.6
20260504220848 19 90 3.2 6.4 0.00 0.03 0.03 95 1017.7
20260504220348 19 90 1.6 6.4 0.00 0.03 0.03 95 1017.7
20260504215848 19 95 1.6 6.4 0.03 0.03 0.03 96 1017.7
20260504215348 19 95 1.6 6.4 0.03 0.03 0.03 96 1017.6
20260504214848 19 92 1.6 3.2 0.03 0.03 0.03 96 1017.5
20260504214348 18 96 1.6 3.2 0.03 0.03 0.03 96 1017.4
20260504213848 18 96 0.0 3.2 0.03 0.03 0.03 97 1017.5
20260504213348 18 96 0.0 0.0 0.03 0.03 0.03 97 1017.4
20260504212848 18 96 0.0 1.6 0.03 0.03 0.03 96 1017.3
20260504212348 17 96 0.0 1.6 0.03 0.03 0.03 96 1017.3
20260504211848 17 96 0.0 0.0 0.03 0.03 0.03 96 1017.3
20260504211838 17 96 0.0 0.0 0.03 0.03 0.03 95 1017.2
20260504211348 17 96 0.0 0.0 0.03 0.03 0.03 95 1017.3
20260504210848 17 96 0.0 0.0 0.03 0.03 0.03 95 1017.2
20260504210348 17 96 0.0 0.0 0.03 0.03 0.03 95 1017.2
20260504210038 17 96 0.0 0.0 0.00 0.00 0.00 95 1017.1
20260504205848 17 96 0.0 0.0 0.00 0.00 0.00 95 1017.2
20260504205348 17 96 0.0 0.0 0.00 0.00 0.00 95 1017.1
20260504204848 17 96 0.0 0.0 0.00 0.00 0.00 95 1017.0
20260504204348 17 96 0.0 0.0 0.00 0.00 0.00 95 1017.0
20260504204335 17 96 0.0 0.0 0.00 0.00 0.00 94 1016.9
20260504203848 17 96 0.0 0.0 0.00 0.00 0.00 94 1016.9
20260504203348 17 96 0.0 0.0 0.00 0.00 0.00 94 1016.9
20260504202848 17 96 0.0 0.0 0.00 0.00 0.00 94 1017.0
20260504202348 17 96 0.0 0.0 0.00 0.00 0.00 94 1016.8
20260504201848 17 96 0.0 0.0 0.00 0.00 0.00 94 1016.9
20260504201634 17 96 0.0 0.0 0.00 0.00 0.00 94 1016.8
20260504201348 17 96 0.0 0.0 0.00 0.00 0.00 94 1016.8
20260504201138 17 96 0.0 0.0 0.00 0.00 0.00 94 1016.9
20260504200848 17 96 0.0 0.0 0.00 0.00 0.00 94 1016.9
20260504200348 17 96 0.0 0.0 0.00 0.00 0.00 94 1016.8
20260504195848 17 96 0.0 0.0 0.00 0.00 0.00 94 1016.7
20260504195535 16 96 0.0 0.0 0.00 0.00 0.00 94 1016.6
20260504195348 17 96 0.0 0.0 0.00 0.00 0.00 94 1016.8
20260504194848 17 96 0.0 0.0 0.00 0.00 0.00 94 1016.7
20260504194348 16 96 0.0 0.0 0.00 0.00 0.00 94 1016.6
20260504193848 16 96 0.0 0.0 0.00 0.00 0.00 94 1016.5
20260504193640 17 96 0.0 0.0 0.00 0.00 0.00 94 1016.4
20260504193348 16 96 0.0 0.0 0.00 0.00 0.00 94 1016.3
20260504192848 17 96 0.0 0.0 0.00 0.00 0.00 94 1016.4
20260504192535 17 96 0.0 0.0 0.00 0.00 0.00 94 1016.2
20260504192348 17 96 0.0 0.0 0.00 0.00 0.00 94 1016.2
20260504191848 17 96 0.0 0.0 0.00 0.00 0.00 94 1016.2
20260504191348 17 96 0.0 0.0 0.00 0.00 0.00 94 1016.2
20260504190848 17 96 0.0 0.0 0.00 0.00 0.00 94 1016.1
20260504190348 17 96 0.0 0.0 0.00 0.00 0.00 94 1016.1
20260504185848 17 96 0.0 0.0 0.00 0.00 0.00 94 1016.1
20260504185348 17 96 0.0 0.0 0.00 0.00 0.00 94 1016.0
20260504184944 17 96 0.0 0.0 0.00 0.00 0.00 94 1016.0
20260504184848 17 96 0.0 0.0 0.00 0.00 0.00 94 1016.0
20260504184643 17 96 0.0 0.0 0.00 0.00 0.00 94 1016.0
20260504184348 17 96 0.0 0.0 0.00 0.00 0.00 94 1016.0
20260504183848 17 96 0.0 0.0 0.00 0.00 0.00 94 1016.0
20260504183443 17 96 0.0 0.0 0.00 0.00 0.00 94 1016.0
20260504183348 17 96 0.0 0.0 0.00 0.00 0.00 94 1016.0
20260504182848 17 96 0.0 0.0 0.00 0.00 0.00 93 1016.0
20260504182550 17 96 0.0 0.0 0.00 0.00 0.00 93 1015.8
20260504182348 17 96 0.0 0.0 0.00 0.00 0.00 93 1016.0
20260504181848 17 96 0.0 0.0 0.00 0.00 0.00 93 1015.9
20260504181348 17 96 0.0 0.0 0.00 0.00 0.00 93 1015.8
20260504180848 17 96 0.0 0.0 0.00 0.00 0.00 93 1015.9
20260504180348 17 96 0.0 0.0 0.00 0.00 0.00 93 1015.8
20260504175848 17 96 0.0 0.0 0.00 0.00 0.00 92 1015.8
20260504175348 17 96 0.0 0.0 0.00 0.00 0.00 93 1015.8
20260504174848 17 96 0.0 0.0 0.00 0.00 0.00 93 1015.8
20260504174348 17 96 0.0 0.0 0.00 0.00 0.00 93 1015.7
20260504174201 17 96 0.0 0.0 0.00 0.00 0.00 93 1015.7
20260504173848 17 96 0.0 0.0 0.00 0.00 0.00 93 1015.7
20260504173348 17 96 0.0 0.0 0.00 0.00 0.00 93 1015.7
20260504172848 17 96 0.0 0.0 0.00 0.00 0.00 93 1015.7
20260504172759 17 96 0.0 0.0 0.00 0.00 0.00 93 1015.7
20260504172348 17 96 0.0 0.0 0.00 0.00 0.00 93 1015.7
20260504171848 17 96 0.0 0.0 0.00 0.00 0.00 93 1015.7
20260504171348 17 96 0.0 0.0 0.00 0.00 0.00 93 1015.8
20260504170848 17 96 0.0 0.0 0.00 0.00 0.00 93 1015.7
20260504170348 17 96 0.0 0.0 0.00 0.00 0.00 93 1015.9
20260504160348 18 96 0.0 1.6 0.00 0.00 0.00 93 1016.1
20260504150848 18 96 0.0 0.0 0.00 0.00 0.00 93 1016.4
20260504150348 18 96 0.0 1.6 0.00 0.00 0.00 93 1016.4